Sixes, Oregon
Current Conditions -  °F | °C
As of 2:55 PM on Thursday 20 Nov 2014 (Local Time) from KOTH Reporting Station
Overcast Overcast  
Wind Chill: 57°   Ceiling: 3800
Heat Index: 57°   Visibility: 10mi
Dew Point: 54°   Wind: 7mph
Humidity: 88%   Direction: 180°S
Pressure: 29.95"   Gusts: NA
Location:  42.82°N, 124.49°W
Report Text: KOTH 202255Z 18006KT 10SM FEW022 FEW027 OVC038 14/12 A2995 RMK AO1
Loading
Personal Weather Stations






























Interactive Weather Map New forecast layout! Learn more

10-Day Weather Forecast

Advertisements
Track Severe Weather on mobile